Station: Kalgoorlie-Boulder  

  Atmospheric Gas Attenuation - ITU Rec 676-11   ----------------- dB/100km -----------------
Date Time Temp RH % AH g/m3 Dew Point Wind Direction Speed kph Gust kph Barometer mB Rainfall Since 9am 24GHz 47GHz 76GHz 122GHz 134GHz 241GHz
08/05 09:30 14.8 59 7.47 6.9 20 28 1033.3 0 17.1 24.6 35.8 93.4 84.2 288.5
08/05 09:20 14.6 61 7.63 7.2 15 19 1033.4 0 17.5 24.9 36.5 95.3 86.4 296.4
08/05 09:10 14.4 61 7.54 7 17 20 1033.5 0 17.3 24.8 36.2 94.6 85.5 293.1
08/05 09:00 14.1 63 7.65 7.2 19 28 1033.4 0 17.5 25.0 36.8 96.1 87.2 299.1
08/05 08:50 13.9 64 7.67 7.2 19 20 1033.5 0 17.6 25.1 36.9 96.5 87.7 300.8
08/05 08:40 13.9 66 7.91 7.7 15 17 1033.5 0 18.1 25.5 37.9 99.1 90.8 311.7
08/05 08:30 13.4 67 7.79 7.4 17 24 1033.5 0 17.9 25.5 37.6 98.4 89.8 308.2
08/05 08:20 13.1 69 7.87 7.5 17 17 1033.6 0 18.0 25.7 38.1 99.6 91.2 313.1
08/05 08:10 12.8 70 7.84 7.5 19 20 1033.5 0 18.0 25.7 38.1 99.7 91.2 312.8
08/05 08:00 12.7 71 7.9 7.6 17 26 1033.5 0 18.1 25.8 38.4 100.5 92.1 316.0
08/05 07:50 12.5 72 7.92 7.6 13 17 1033.5 0 18.2 25.9 38.6 100.9 92.6 317.8
08/05 07:40 12 73 7.78 7.3 20 22 1033.4 0 17.9 25.8 38.3 100.0 91.3 313.2
08/05 07:30 11.6 75 7.8 7.3 17 24 1033.2 0 18.0 26.0 38.5 100.7 92.0 315.7
08/05 07:20 11.6 75 7.8 7.3 22 26 1033.1 0 18.0 26.0 38.5 100.7 92.0 315.7
08/05 07:10 11.5 75 7.75 7.2 17 17 1033 0 17.9 25.9 38.4 100.3 91.5 313.7
08/05 07:00 11.6 75 7.8 7.3 17 26 1032.9 0 18.0 26.0 38.5 100.7 92.0 315.6
08/05 06:50 11.5 75 7.75 7.2 20 24 1032.9 0 17.9 25.9 38.4 100.3 91.5 313.7
08/05 06:40 11.4 76 7.8 7.3 19 20 1032.9 0 18.0 26.0 38.6 101.0 92.3 316.4
08/05 06:30 11.6 75 7.8 7.3 17 24 1032.8 0 18.0 26.0 38.5 100.7 92.0 315.6
08/05 06:20 11.7 75 7.85 7.4 19 20 1032.7 0 18.1 26.0 38.7 101.1 92.6 317.5
08/05 06:10 11.8 74 7.79 7.3 17 22 1032.7 0 17.9 25.9 38.4 100.3 91.6 314.3
08/05 06:00 12 74 7.89 7.5 19 28 1032.6 0 18.1 26.0 38.7 101.2 92.7 318.1
08/05 05:50 12.1 73 7.83 7.4 20 22 1032.5 0 18.0 25.9 38.4 100.4 91.8 314.9
08/05 05:40 12.3 72 7.82 7.4 17 19 1032.5 0 18.0 25.8 38.2 100.0 91.4 313.6
08/05 05:30 12.3 72 7.82 7.4 19 26 1032.4 0 18.0 25.8 38.2 100.0 91.4 313.6
08/05 05:20 12.5 72 7.92 7.6 19 20 1032.4 0 18.2 25.9 38.6 100.8 92.5 317.5
08/05 05:10 12.5 72 7.92 7.6 19 24 1032.3 0 18.2 25.9 38.5 100.8 92.5 317.4
08/05 05:00 12.6 71 7.86 7.5 20 28 1032.2 0 18.0 25.8 38.3 100.0 91.6 314.2
08/05 04:50 12.7 71 7.9 7.6 20 24 1032.2 0 18.1 25.8 38.4 100.3 92.0 315.7
08/05 04:40 12.8 71 7.95 7.7 17 20 1032.1 0 18.2 25.8 38.5 100.7 92.5 317.6
08/05 04:30 12.9 70 7.89 7.6 19 26 1032 0 18.1 25.7 38.2 99.9 91.6 314.4
08/05 04:20 12.9 70 7.89 7.6 20 24 1031.8 0 18.1 25.7 38.2 99.9 91.6 314.3
08/05 04:10 13.1 70 7.99 7.8 20 22 1031.8 0 18.3 25.8 38.5 100.7 92.7 318.2
08/05 04:00 13.2 70 8.04 7.9 17 26 1031.9 0 18.4 25.9 38.7 101.2 93.2 320.1
08/05 03:50 13.2 70 8.04 7.9 20 24 1031.8 0 18.4 25.9 38.7 101.1 93.2 320.1
08/05 03:40 13.4 70 8.14 8 20 26 1031.7 0 18.6 26.0 39.0 102.0 94.3 323.9
08/05 03:30 13.5 71 8.31 8.4 20 30 1031.6 0 19.0 26.2 39.6 103.6 96.4 331.3
08/05 03:20 13.6 72 8.47 8.7 19 24 1031.5 0 19.3 26.4 40.2 105.2 98.4 338.3
08/05 03:10 13.7 73 8.64 9 17 20 1031.4 0 19.7 26.7 40.8 106.9 100.6 345.8
08/05 03:00 13.9 74 8.87 9.3 20 24 1031.3 0 20.1 27.0 41.7 109.1 103.4 355.7
08/05 02:50 14 74 8.93 9.4 20 26 1031.4 0 20.3 27.1 41.9 109.7 104.1 358.1
08/05 02:40 14.1 75 9.1 9.7 17 20 1031.5 0 20.6 27.3 42.5 111.4 106.2 365.7
08/05 02:30 14.1 74 8.98 9.5 17 22 1031.5 0 20.4 27.1 42.0 110.1 104.6 360.1
08/05 02:20 14.2 75 9.16 9.8 17 20 1031.5 0 20.7 27.4 42.7 111.9 106.9 368.1
08/05 02:10 14.2 76 9.28 10 22 26 1031.4 0 21.0 27.6 43.2 113.2 108.5 373.8
08/05 02:00 14.2 76 9.28 10 20 30 1031.3 0 21.0 27.6 43.2 113.2 108.5 373.8
08/05 01:50 14.2 76 9.28 10 19 22 1031.3 0 21.0 27.6 43.2 113.2 108.5 373.8
08/05 01:40 14.2 76 9.28 10 24 26 1031.3 0 21.0 27.6 43.2 113.2 108.5 373.8
08/05 01:30 14 77 9.29 10 17 22 1031.2 0 21.0 27.7 43.3 113.6 108.9 375.2
08/05 01:20 13.8 79 9.41 10.2 15 17 1031.3 0 21.3 27.9 43.9 115.3 110.9 381.9
08/05 01:10 13.8 79 9.41 10.2 13 15 1031.5 0 21.3 27.9 44.0 115.3 110.9 382.0
08/05 01:00 13.6 79 9.3 10 15 19 1031.3 0 21.1 27.8 43.6 114.3 109.6 377.6
08/05 00:50 13.9 78 9.35 10.1 19 20 1031.4 0 21.2 27.8 43.6 114.5 109.9 378.6
08/05 00:40 14.2 77 9.4 10.2 13 15 1031.4 0 21.3 27.8 43.7 114.6 110.2 379.5
08/05 00:30 14.3 76 9.34 10.1 17 30 1031.3 0 21.1 27.6 43.4 113.8 109.2 376.1
08/05 00:20 14.6 74 9.26 10 22 26 1031.3 0 20.9 27.4 42.9 112.4 107.7 370.9
08/05 00:10 14.7 74 9.32 10.1 19 22 1031.4 0 21.1 27.5 43.1 113.0 108.4 373.3
08/05 00:00 14.7 74 9.32 10.1 19 28 1031.3 0 21.1 27.5 43.1 113.0 108.4 373.3
07/05 23:50 14.7 75 9.44 10.3 20 24 1031.3 0 21.3 27.7 43.6 114.3 110.0 379.0
07/05 23:40 14.4 76 9.39 10.2 15 19 1031.3 0 21.2 27.7 43.5 114.2 109.7 378.0
07/05 23:30 14.3 76 9.34 10.1 17 22 1031.2 0 21.1 27.6 43.4 113.7 109.2 376.1
07/05 23:20 14.3 77 9.46 10.3 17 19 1031.3 0 21.4 27.8 43.9 115.1 110.8 381.9
07/05 23:10 14.2 77 9.4 10.2 19 20 1031.2 0 21.3 27.8 43.7 114.6 110.2 379.5
07/05 23:00 14.2 78 9.52 10.4 19 24 1031.2 0 21.5 28.0 44.2 115.9 111.8 385.2
07/05 22:50 14.1 76 9.22 9.9 17 20 1031.4 0 20.9 27.5 43.0 112.7 107.9 371.4
07/05 22:40 14.3 75 9.21 9.9 17 19 1031.5 0 20.8 27.4 42.9 112.3 107.4 370.0
07/05 22:30 14.3 75 9.21 9.9 20 24 1031.3 0 20.8 27.4 42.8 112.3 107.4 370.0
07/05 22:20 14.8 72 9.12 9.8 17 20 1031.5 0 20.6 27.1 42.2 110.6 105.5 363.4
07/05 22:10 15 72 9.23 10 20 24 1031.4 0 20.8 27.3 42.6 111.6 106.7 367.6
07/05 22:00 15 71 9.1 9.8 24 33 1031.5 0 20.6 27.0 42.0 110.1 105.0 361.6
07/05 21:50 14.9 71 9.05 9.7 22 28 1031.5 0 20.5 27.0 41.9 109.7 104.5 359.7
07/05 21:40 14.8 71 8.99 9.6 22 26 1031.6 0 20.3 26.9 41.7 109.2 103.8 357.4
07/05 21:30 14.7 70 8.81 9.3 19 26 1031.6 0 20.0 26.7 41.0 107.4 101.5 349.4
07/05 21:20 14.6 69 8.63 9 17 20 1031.6 0 19.6 26.4 40.3 105.6 99.3 341.5
07/05 21:10 14.7 67 8.44 8.6 17 20 1031.4 0 19.2 26.1 39.5 103.4 96.6 332.2
07/05 21:00 15 64 8.21 8.3 19 22 1031.3 0 18.7 25.6 38.5 100.6 93.3 320.4
07/05 20:50 15.2 61 7.92 7.7 17 20 1031.3 0 18.1 25.1 37.2 97.3 89.3 306.6
07/05 20:40 15.2 59 7.66 7.2 17 19 1031.4 0 17.5 24.7 36.2 94.7 86.0 295.0
07/05 20:30 15.2 57 7.4 6.7 17 20 1031.2 0 17.0 24.3 35.2 92.0 82.7 283.4
07/05 20:20 15.4 56 7.36 6.7 17 19 1031.1 0 16.9 24.2 35.0 91.3 82.0 281.0
07/05 20:10 15.4 57 7.49 6.9 17 17 1031.1 0 17.1 24.4 35.5 92.7 83.6 286.7
07/05 20:00 15.2 57 7.4 6.7 15 19 1031 0 17.0 24.3 35.2 92.0 82.7 283.4
07/05 19:50 14.6 59 7.38 6.7 15 17 1031.1 0 16.9 24.4 35.4 92.5 83.1 284.7
07/05 19:40 15.5 56 7.4 6.8 15 17 1031.1 0 16.9 24.2 35.1 91.6 82.4 282.4
07/05 19:30 15.5 56 7.4 6.8 15 20 1030.9 0 16.9 24.2 35.1 91.6 82.4 282.3
07/05 19:20 15.5 56 7.4 6.8 13 15 1030.9 0 16.9 24.2 35.1 91.6 82.4 282.3
07/05 19:10 15.6 55 7.31 6.6 17 19 1030.8 0 16.8 24.0 34.7 90.6 81.1 278.0
07/05 19:00 15.7 55 7.36 6.7 15 22 1030.7 0 16.9 24.1 34.8 91.0 81.6 279.8
07/05 18:50 16 54 7.36 6.7 17 24 1030.6 0 16.8 24.0 34.7 90.6 81.3 278.8
07/05 18:40 16.3 53 7.35 6.7 22 28 1030.6 0 16.8 23.9 34.5 90.2 80.9 277.3
07/05 18:30 16.5 52 7.3 6.6 28 35 1030.5 0 16.7 23.8 34.3 89.4 80.1 274.4
07/05 18:20 16.4 53 7.4 6.8 28 32 1030.4 0 16.9 23.9 34.7 90.5 81.4 279.1
07/05 18:10 16.3 53 7.35 6.7 20 24 1030.3 0 16.8 23.9 34.5 90.1 80.9 277.2
07/05 18:00 16.5 52 7.3 6.6 24 30 1030.2 0 16.7 23.7 34.2 89.4 80.1 274.4
07/05 17:50 16.6 51 7.2 6.4 19 22 1030.2 0 16.5 23.6 33.8 88.3 78.7 269.7
07/05 17:40 16.7 51 7.25 6.5 20 28 1030.1 0 16.6 23.6 34.0 88.7 79.2 271.5
07/05 17:30 17 50 7.23 6.5 28 39 1030.1 0 16.5 23.5 33.8 88.2 78.7 269.6
07/05 17:20 17.3 50 7.37 6.8 24 32 1030.1 0 16.8 23.6 34.2 89.2 80.1 274.6
07/05 17:10 17.4 49 7.26 6.6 30 33 1030 0 16.6 23.4 33.7 88.0 78.7 269.6
07/05 17:00 17.7 48 7.24 6.6 28 35 1030 0 16.5 23.3 33.5 87.5 78.1 267.7

Last Refresh: 08-May-2026 11:05:13

Bureau of Meteorology